createdAt,value
2022-10-21T00:04:07.266Z,23.65
2022-10-21T00:06:34.993Z,22.55
2022-10-21T00:09:02.714Z,16.65
2022-10-21T00:11:30.409Z,21.17
2022-10-21T00:13:59.427Z,21.23
2022-10-21T00:16:27.079Z,21.60
2022-10-21T00:18:54.720Z,19.88
2022-10-21T00:21:25.394Z,17.27
2022-10-21T00:23:53.042Z,21.02
2022-10-21T00:26:21.098Z,16.67
2022-10-21T00:28:48.741Z,19.40
2022-10-21T00:31:17.776Z,25.00
2022-10-21T00:33:45.446Z,14.55
2022-10-21T00:36:15.719Z,14.93
2022-10-21T00:38:44.632Z,18.73
2022-10-21T00:41:13.418Z,17.30
2022-10-21T00:43:55.581Z,15.13
2022-10-21T00:46:30.769Z,14.85
2022-10-21T00:49:02.780Z,14.38
2022-10-21T00:51:32.125Z,15.75
2022-10-21T00:54:01.235Z,15.23
2022-10-21T00:56:32.065Z,14.15
2022-10-21T00:59:04.012Z,17.42
2022-10-21T01:01:33.196Z,12.02
2022-10-21T01:04:03.470Z,14.07
2022-10-21T01:06:32.802Z,10.93
2022-10-21T01:09:01.027Z,15.38
2022-10-21T01:11:31.341Z,19.20
2022-10-21T01:14:11.825Z,25.00
2022-10-21T01:16:48.252Z,18.48
2022-10-21T01:19:56.792Z,16.60
2022-10-21T01:22:43.946Z,17.33
2022-10-21T01:25:33.874Z,18.20
2022-10-21T01:28:14.797Z,17.73
2022-10-21T01:30:47.712Z,14.05
2022-10-21T01:33:37.817Z,14.15
2022-10-21T01:36:19.186Z,18.00
2022-10-21T01:38:59.825Z,16.90
2022-10-21T01:41:31.299Z,22.48
2022-10-21T01:44:07.055Z,14.55
2022-10-21T01:46:43.253Z,13.77
2022-10-21T01:49:19.007Z,12.73
2022-10-21T01:51:47.259Z,15.45
2022-10-21T01:54:20.336Z,14.88
2022-10-21T01:56:49.855Z,15.57
2022-10-21T01:59:19.860Z,11.90
2022-10-21T02:01:51.258Z,13.32
2022-10-21T02:04:20.148Z,15.82
2022-10-21T02:06:48.077Z,15.82
2022-10-21T02:09:15.798Z,16.50
2022-10-21T02:11:48.166Z,14.45
2022-10-21T02:14:20.684Z,12.80
2022-10-21T02:16:53.585Z,13.27
2022-10-21T02:19:21.950Z,14.88
2022-10-21T02:21:53.684Z,23.00
2022-10-21T02:24:27.896Z,16.95
2022-10-21T02:26:56.079Z,21.58
2022-10-21T02:29:29.538Z,16.42
2022-10-21T02:32:10.026Z,16.23
2022-10-21T02:34:49.621Z,13.30
2022-10-21T02:37:28.512Z,16.35
2022-10-21T02:40:02.573Z,16.27
2022-10-21T02:42:37.017Z,14.52
2022-10-21T02:45:06.404Z,15.15
2022-10-21T02:47:37.545Z,16.10
2022-10-21T02:50:06.576Z,11.57
2022-10-21T02:52:34.257Z,12.07
2022-10-21T02:55:01.961Z,15.02
2022-10-21T02:57:29.601Z,12.57
2022-10-21T02:59:57.241Z,14.73
2022-10-21T03:02:24.954Z,20.52
2022-10-21T03:04:53.965Z,16.95
2022-10-21T03:07:21.612Z,17.52
2022-10-21T03:09:49.263Z,16.45
2022-10-21T03:12:16.929Z,21.08
2022-10-21T03:14:44.548Z,18.02
2022-10-21T03:17:12.204Z,18.55
2022-10-21T03:19:39.873Z,15.10
2022-10-21T03:22:08.916Z,16.70
2022-10-21T03:24:36.533Z,15.23
2022-10-21T03:27:04.525Z,14.63
2022-10-21T03:29:32.224Z,11.98
2022-10-21T03:31:59.901Z,17.75
2022-10-21T03:34:27.588Z,23.70
2022-10-21T03:36:58.527Z,20.65
2022-10-21T03:39:27.493Z,22.95
2022-10-21T03:41:55.172Z,18.05
2022-10-21T03:44:22.832Z,18.52
2022-10-21T03:46:50.484Z,19.63
2022-10-21T03:49:21.283Z,18.50
2022-10-21T03:51:49.324Z,14.68
2022-10-21T03:54:17.757Z,14.05
2022-10-21T03:56:47.695Z,16.88
2022-10-21T03:59:15.585Z,13.68
2022-10-21T04:01:43.418Z,12.70
2022-10-21T04:04:11.118Z,18.80
2022-10-21T04:06:38.796Z,19.58
2022-10-21T04:09:06.475Z,15.02
2022-10-21T04:11:34.309Z,16.60
2022-10-21T04:14:03.358Z,16.13
2022-10-21T04:16:31.103Z,21.30
2022-10-21T04:18:58.775Z,19.42
2022-10-21T04:21:26.404Z,17.63
2022-10-21T04:23:54.056Z,16.52
2022-10-21T04:26:21.714Z,15.30
2022-10-21T04:28:49.447Z,18.45
2022-10-21T04:31:18.450Z,15.35
2022-10-21T04:33:46.086Z,18.92
2022-10-21T04:36:13.680Z,18.73
2022-10-21T04:38:41.311Z,17.77
2022-10-21T04:41:08.957Z,14.23
2022-10-21T04:43:38.038Z,14.10
2022-10-21T04:46:14.182Z,14.07
2022-10-21T04:48:43.413Z,14.45
2022-10-21T04:51:11.175Z,17.40
2022-10-21T04:53:38.953Z,15.50
2022-10-21T04:56:07.579Z,14.10
2022-10-21T04:58:35.226Z,16.40
2022-10-21T05:01:02.962Z,14.07
2022-10-21T05:03:30.716Z,16.17
2022-10-21T05:05:59.792Z,13.98
2022-10-21T05:08:27.502Z,13.60
2022-10-21T05:10:59.093Z,14.68
2022-10-21T05:13:26.815Z,15.25
2022-10-21T05:15:54.572Z,13.65
2022-10-21T05:18:22.206Z,12.63
2022-10-21T05:20:53.596Z,11.10
2022-10-21T05:23:22.933Z,16.55
2022-10-21T05:25:51.615Z,13.50
2022-10-21T05:28:19.638Z,13.73
2022-10-21T05:30:47.621Z,16.52
2022-10-21T05:33:16.110Z,11.52
2022-10-21T05:35:43.928Z,15.68
2022-10-21T05:38:11.632Z,16.65
2022-10-21T05:40:40.649Z,11.15
2022-10-21T05:43:08.328Z,17.90
2022-10-21T05:45:35.989Z,25.45
2022-10-21T05:48:06.587Z,11.13
2022-10-21T05:50:34.210Z,15.32
2022-10-21T05:53:01.938Z,16.92
2022-10-21T05:55:29.696Z,14.85
2022-10-21T05:58:01.066Z,13.60
2022-10-21T06:00:28.764Z,15.20
2022-10-21T06:02:56.476Z,17.50
2022-10-21T06:05:24.112Z,16.75
2022-10-21T06:07:51.847Z,14.90
2022-10-21T06:10:19.610Z,20.42
2022-10-21T06:12:47.325Z,13.68
2022-10-21T06:15:16.598Z,16.48
2022-10-21T06:17:44.293Z,14.73
2022-10-21T06:20:12.059Z,17.50
2022-10-21T06:22:39.705Z,12.63
2022-10-21T06:25:07.897Z,13.10
2022-10-21T06:27:35.573Z,14.25
2022-10-21T06:30:03.409Z,11.35
2022-10-21T06:32:32.893Z,11.30
2022-10-21T06:35:00.533Z,11.80
2022-10-21T06:37:28.201Z,12.68
2022-10-21T06:39:55.863Z,18.10
2022-10-21T06:42:26.203Z,14.77
2022-10-21T06:44:56.604Z,12.90
2022-10-21T06:47:26.998Z,14.00
2022-10-21T06:49:55.990Z,12.52
2022-10-21T06:52:23.692Z,16.08
2022-10-21T06:54:51.381Z,14.77
2022-10-21T06:57:19.030Z,12.55
2022-10-21T06:59:48.073Z,13.93
2022-10-21T07:02:18.576Z,9.77
2022-10-21T07:04:49.171Z,10.88
2022-10-21T07:07:18.183Z,13.63
2022-10-21T07:09:45.987Z,11.43
2022-10-21T07:12:14.045Z,14.93
2022-10-21T07:14:41.706Z,16.05
2022-10-21T07:17:12.046Z,11.95
2022-10-21T07:19:39.753Z,11.65
2022-10-21T07:22:07.449Z,12.20
2022-10-21T07:24:36.744Z,10.00
2022-10-21T07:27:04.497Z,12.40
2022-10-21T07:29:32.139Z,10.32
2022-10-21T07:32:00.090Z,12.93
2022-10-21T07:34:27.812Z,11.88
2022-10-21T07:36:55.828Z,11.52
2022-10-21T07:39:26.241Z,10.63
2022-10-21T07:41:56.856Z,15.52
2022-10-21T07:44:26.152Z,12.15
2022-10-21T07:46:54.617Z,13.43
2022-10-21T07:49:22.966Z,11.40
2022-10-21T07:51:50.998Z,11.80
2022-10-21T07:54:19.577Z,16.60
2022-10-21T07:56:49.578Z,10.93
2022-10-21T07:59:20.108Z,14.20
2022-10-21T08:04:20.228Z,11.40
2022-10-21T08:06:48.966Z,12.93
2022-10-21T08:09:17.980Z,10.63
2022-10-21T08:11:45.958Z,10.73
2022-10-21T08:14:13.900Z,9.82
2022-10-21T08:16:43.200Z,10.90
2022-10-21T08:19:19.015Z,9.50
2022-10-21T08:21:46.694Z,11.95
2022-10-21T08:24:14.381Z,10.90
2022-10-21T08:26:42.232Z,14.15
2022-10-21T08:29:09.929Z,19.77
2022-10-21T08:31:37.704Z,10.68
2022-10-21T08:34:06.713Z,10.65
2022-10-21T08:36:34.444Z,12.45
2022-10-21T08:39:02.093Z,9.35
2022-10-21T08:41:45.160Z,8.57
2022-10-21T08:44:29.964Z,10.52
2022-10-21T08:47:04.896Z,18.95
2022-10-21T08:49:43.729Z,11.85
2022-10-21T08:52:15.048Z,12.30
2022-10-21T08:54:47.691Z,11.07
2022-10-21T08:57:15.921Z,9.90
2022-10-21T08:59:43.833Z,11.70
2022-10-21T09:02:45.247Z,16.13
2022-10-21T09:05:30.477Z,11.15
2022-10-21T09:08:10.231Z,13.95
2022-10-21T09:10:50.976Z,11.63
2022-10-21T09:13:26.566Z,11.27
2022-10-21T09:18:47.023Z,10.05
2022-10-21T09:21:24.365Z,7.38
2022-10-21T09:24:01.588Z,13.73
2022-10-21T09:26:37.720Z,12.07
2022-10-21T09:29:21.022Z,9.00
2022-10-21T09:31:55.198Z,9.32
2022-10-21T09:34:39.897Z,10.98
2022-10-21T09:37:19.068Z,13.30
2022-10-21T09:39:51.161Z,10.00
2022-10-21T09:42:42.279Z,14.10
2022-10-21T09:45:15.991Z,13.13
2022-10-21T09:47:43.850Z,9.65
2022-10-21T09:50:17.894Z,12.77
2022-10-21T09:52:54.141Z,16.30
2022-10-21T09:55:21.921Z,14.82
2022-10-21T09:57:55.381Z,11.57
2022-10-21T10:00:23.192Z,10.90
2022-10-21T10:02:51.094Z,14.20
2022-10-21T10:05:36.110Z,9.30
2022-10-21T10:08:28.094Z,10.75
2022-10-21T10:11:03.492Z,9.88
2022-10-21T10:13:31.957Z,14.35
2022-10-21T10:16:15.030Z,16.08
2022-10-21T10:18:43.277Z,15.68
2022-10-21T10:21:12.468Z,19.20
2022-10-21T10:23:49.952Z,21.88
2022-10-21T10:26:21.069Z,20.30
2022-10-21T10:28:52.075Z,24.63
2022-10-21T10:31:46.267Z,16.63
2022-10-21T10:34:22.274Z,19.80
2022-10-21T10:36:51.856Z,19.20
2022-10-21T10:39:30.587Z,16.33
2022-10-21T10:41:58.539Z,17.63
2022-10-21T10:44:31.344Z,19.80
2022-10-21T10:47:02.059Z,17.33
2022-10-21T10:49:37.564Z,21.20
2022-10-21T10:52:15.063Z,17.00
2022-10-21T10:54:44.672Z,18.25
2022-10-21T10:57:16.392Z,19.83
2022-10-21T10:59:46.492Z,19.83
2022-10-21T11:02:35.021Z,16.08
2022-10-21T11:05:17.792Z,13.85
2022-10-21T11:07:49.282Z,15.15
2022-10-21T11:10:44.711Z,15.43
2022-10-21T11:13:14.592Z,19.23
2022-10-21T11:15:56.107Z,17.02
2022-10-21T11:18:30.670Z,17.38
2022-10-21T11:21:07.404Z,16.85
2022-10-21T11:24:07.618Z,13.52
2022-10-21T11:26:46.788Z,14.98
2022-10-21T11:29:29.127Z,14.55
2022-10-21T11:32:11.580Z,14.85
2022-10-21T11:34:51.353Z,11.38
2022-10-21T11:37:28.888Z,16.05
2022-10-21T11:40:03.880Z,12.55
2022-10-21T11:42:39.762Z,13.85
2022-10-21T11:45:29.027Z,11.65
2022-10-21T11:48:05.348Z,11.50
2022-10-21T11:50:39.061Z,11.93
2022-10-21T11:53:19.709Z,12.57
2022-10-21T11:55:54.652Z,11.07
2022-10-21T11:58:33.662Z,8.65
2022-10-21T12:01:15.676Z,13.55
2022-10-21T12:04:02.282Z,14.25
2022-10-21T12:06:35.322Z,10.43
2022-10-21T12:09:06.822Z,10.80
2022-10-21T12:11:41.242Z,10.07
2022-10-21T12:14:31.393Z,10.23
2022-10-21T12:17:02.823Z,11.02
2022-10-21T12:19:30.970Z,11.60
2022-10-21T12:21:58.973Z,8.75
2022-10-21T12:24:38.312Z,10.43
2022-10-21T12:27:15.706Z,9.95
2022-10-21T12:29:59.389Z,10.68
2022-10-21T12:32:32.699Z,9.93
2022-10-21T12:35:02.108Z,9.63
2022-10-21T12:38:02.059Z,11.93
2022-10-21T12:40:39.444Z,8.90
2022-10-21T12:43:17.546Z,7.40
2022-10-21T12:45:47.700Z,11.23
2022-10-21T12:48:32.966Z,10.18
2022-10-21T12:51:03.347Z,8.02
2022-10-21T12:53:43.193Z,8.30
2022-10-21T12:56:11.732Z,11.00
2022-10-21T12:58:43.878Z,12.07
2022-10-21T13:01:42.339Z,7.25
2022-10-21T13:04:48.666Z,6.05
2022-10-21T13:07:39.201Z,9.13
2022-10-21T13:10:31.394Z,8.00
2022-10-21T13:13:29.946Z,5.93
2022-10-21T13:15:57.765Z,9.30
2022-10-21T13:18:58.674Z,8.27
2022-10-21T13:21:33.365Z,5.82
2022-10-21T13:24:12.748Z,8.80
2022-10-21T13:26:43.035Z,9.60
2022-10-21T13:29:24.118Z,6.38
2022-10-21T13:32:21.697Z,9.77
2022-10-21T13:35:01.181Z,8.18
2022-10-21T13:37:33.660Z,10.52
2022-10-21T13:40:05.201Z,10.77
2022-10-21T13:42:37.882Z,6.13
2022-10-21T13:45:16.202Z,4.80
2022-10-21T13:47:44.639Z,10.43
2022-10-21T13:50:19.942Z,6.05
2022-10-21T13:52:47.754Z,6.75
2022-10-21T13:55:21.582Z,5.50
2022-10-21T13:57:50.450Z,7.85
2022-10-21T14:00:21.747Z,8.25
2022-10-21T14:02:49.802Z,6.30
2022-10-21T14:05:40.258Z,6.35
2022-10-21T14:08:18.287Z,7.65
2022-10-21T14:10:47.927Z,3.55
2022-10-21T14:13:16.453Z,7.32
2022-10-21T14:15:46.287Z,7.00
2022-10-21T14:18:29.382Z,3.75
2022-10-21T14:21:01.366Z,4.25
2022-10-21T14:23:30.461Z,4.03
2022-10-21T14:26:05.506Z,3.38
2022-10-21T14:28:34.149Z,4.35
2022-10-21T14:31:02.477Z,2.25
2022-10-21T14:33:30.878Z,4.38
2022-10-21T14:36:08.699Z,5.78
2022-10-21T14:38:40.368Z,5.00
2022-10-21T14:41:12.665Z,6.93
2022-10-21T14:43:43.532Z,4.32
2022-10-21T14:46:12.162Z,2.58
2022-10-21T14:48:44.740Z,6.53
2022-10-21T14:51:21.157Z,8.18
2022-10-21T14:53:53.547Z,2.30
2022-10-21T14:56:23.632Z,8.88
2022-10-21T14:58:58.713Z,4.50
2022-10-21T15:01:26.964Z,4.20
2022-10-21T15:03:56.897Z,4.40
2022-10-21T15:06:27.696Z,2.53
2022-10-21T15:09:18.897Z,4.57
2022-10-21T15:11:48.047Z,4.82
2022-10-21T15:14:23.810Z,6.05
2022-10-21T15:16:54.645Z,6.53
2022-10-21T15:19:27.208Z,5.72
2022-10-21T15:21:59.393Z,3.03
2022-10-21T15:24:36.348Z,3.45
2022-10-21T15:27:05.389Z,3.85
2022-10-21T15:29:37.929Z,4.78
2022-10-21T15:32:07.008Z,4.55
2022-10-21T15:34:34.730Z,2.97
2022-10-21T15:37:03.879Z,5.10
2022-10-21T15:39:31.597Z,2.10
2022-10-21T15:42:00.138Z,2.88
2022-10-21T15:44:30.805Z,2.83
2022-10-21T15:47:00.816Z,2.03
2022-10-21T15:49:32.090Z,7.15
2022-10-21T15:51:59.800Z,2.88
2022-10-21T15:54:28.852Z,2.85
2022-10-21T15:56:56.859Z,6.05
2022-10-21T15:59:26.565Z,2.75
2022-10-21T16:01:55.554Z,5.32
2022-10-21T16:04:23.937Z,2.03
2022-10-21T16:06:53.603Z,3.72
2022-10-21T16:09:23.729Z,4.65
2022-10-21T16:12:00.479Z,5.75
2022-10-21T16:14:31.083Z,1.70
2022-10-21T16:17:00.401Z,3.55
2022-10-21T16:19:29.013Z,4.05
2022-10-21T16:21:57.280Z,3.78
2022-10-21T16:24:25.036Z,3.22
2022-10-21T16:26:54.244Z,2.88
2022-10-21T16:29:23.930Z,5.18
2022-10-21T16:31:52.247Z,3.58
2022-10-21T16:34:20.433Z,3.63
2022-10-21T16:36:48.114Z,5.00
2022-10-21T16:39:18.210Z,2.92
2022-10-21T16:41:45.939Z,3.85
2022-10-21T16:44:14.992Z,4.03
2022-10-21T16:46:50.671Z,6.68
2022-10-21T16:49:23.986Z,4.57
2022-10-21T16:51:52.766Z,3.25
2022-10-21T16:54:21.693Z,3.47
2022-10-21T16:56:52.139Z,3.97
2022-10-21T16:59:24.187Z,4.43
2022-10-21T17:01:52.055Z,2.55
2022-10-21T17:04:19.791Z,4.20
2022-10-21T17:06:47.497Z,3.40
2022-10-21T17:09:15.291Z,3.22
2022-10-21T17:11:43.308Z,6.85
2022-10-21T17:14:16.602Z,4.82
2022-10-21T17:16:46.306Z,2.33
2022-10-21T17:19:14.622Z,5.28
2022-10-21T17:21:42.815Z,4.03
2022-10-21T17:24:15.516Z,5.00
2022-10-21T17:26:43.490Z,3.03
2022-10-21T17:29:11.905Z,4.75
2022-10-21T17:31:41.707Z,5.40
2022-10-21T17:34:25.674Z,5.45
2022-10-21T17:36:53.715Z,4.30
2022-10-21T17:39:21.536Z,7.65
2022-10-21T17:41:51.269Z,5.70
2022-10-21T17:44:19.558Z,4.93
2022-10-21T17:46:49.469Z,6.78
2022-10-21T17:49:18.930Z,4.90
2022-10-21T17:51:46.607Z,4.60
2022-10-21T17:54:14.239Z,5.50
2022-10-21T17:56:42.022Z,3.58
2022-10-21T17:59:10.321Z,3.40
2022-10-21T18:01:38.189Z,6.60
2022-10-21T18:04:06.070Z,3.28
2022-10-21T18:06:35.093Z,3.53
2022-10-21T18:09:03.823Z,4.93
2022-10-21T18:11:34.250Z,5.30
2022-10-21T18:14:01.940Z,4.60
2022-10-21T18:16:29.615Z,5.07
2022-10-21T18:19:01.753Z,4.75
2022-10-21T18:21:31.384Z,6.78
2022-10-21T18:24:00.470Z,3.50
2022-10-21T18:26:32.011Z,4.43
2022-10-21T18:29:02.572Z,3.35
2022-10-21T18:31:32.577Z,3.70
2022-10-21T18:34:01.748Z,3.90
2022-10-21T18:36:33.424Z,3.65
2022-10-21T18:39:02.416Z,3.92
2022-10-21T18:41:30.378Z,2.10
2022-10-21T18:44:01.353Z,3.80
2022-10-21T18:46:29.852Z,4.00
2022-10-21T18:48:58.034Z,4.85
2022-10-21T18:51:25.708Z,4.97
2022-10-21T18:53:53.702Z,3.47
2022-10-21T18:56:24.856Z,4.90
2022-10-21T18:58:52.760Z,4.43
2022-10-21T19:01:21.835Z,2.65
2022-10-21T19:03:50.767Z,6.55
2022-10-21T19:06:27.972Z,3.08
2022-10-21T19:08:56.029Z,4.50
2022-10-21T19:11:25.469Z,7.57
2022-10-21T19:13:54.128Z,2.75
2022-10-21T19:16:25.524Z,2.15
2022-10-21T19:18:54.677Z,5.43
2022-10-21T19:21:23.021Z,6.35
2022-10-21T19:23:52.010Z,3.13
2022-10-21T19:26:22.408Z,4.70
2022-10-21T19:28:52.541Z,3.03
2022-10-21T19:31:21.226Z,4.75
2022-10-21T19:33:48.925Z,6.60
2022-10-21T19:36:16.595Z,4.90
2022-10-21T19:38:44.879Z,5.13
2022-10-21T19:41:16.513Z,4.47
2022-10-21T19:43:45.562Z,6.65
2022-10-21T19:46:21.045Z,3.08
2022-10-21T19:48:51.293Z,3.53
2022-10-21T19:51:21.504Z,7.78
2022-10-21T19:53:51.088Z,9.77
2022-10-21T19:56:23.723Z,12.98
2022-10-21T19:58:55.164Z,5.47
2022-10-21T20:01:28.402Z,3.25
2022-10-21T20:03:56.683Z,7.63
2022-10-21T20:06:26.240Z,4.68
2022-10-21T20:08:55.315Z,5.60
2022-10-21T20:11:23.519Z,4.13
2022-10-21T20:13:52.084Z,5.25
2022-10-21T20:16:21.909Z,2.83
2022-10-21T20:18:51.152Z,3.97
2022-10-21T20:21:19.132Z,5.05
2022-10-21T20:23:47.075Z,2.55
2022-10-21T20:26:14.776Z,3.03
2022-10-21T20:28:42.854Z,4.28
2022-10-21T20:31:12.287Z,2.97
2022-10-21T20:33:42.075Z,6.18
2022-10-21T20:36:14.235Z,1.58
2022-10-21T20:38:43.844Z,2.42
2022-10-21T20:41:14.863Z,3.13
2022-10-21T20:43:45.641Z,4.07
2022-10-21T20:46:14.583Z,3.47
2022-10-21T20:48:46.269Z,3.90
2022-10-21T20:51:17.037Z,3.17
2022-10-21T20:53:50.430Z,2.03
2022-10-21T20:56:18.270Z,1.50
2022-10-21T20:58:46.259Z,2.28
2022-10-21T21:01:17.931Z,2.28
2022-10-21T21:03:46.645Z,5.90
2022-10-21T21:06:16.198Z,2.65
2022-10-21T21:08:49.108Z,3.17
2022-10-21T21:11:26.246Z,2.47
2022-10-21T21:13:53.880Z,1.52
2022-10-21T21:16:24.261Z,2.63
2022-10-21T21:18:53.944Z,2.85
2022-10-21T21:21:25.331Z,4.38
2022-10-21T21:23:53.858Z,2.10
2022-10-21T21:26:23.307Z,3.25
2022-10-21T21:28:51.742Z,6.65
2022-10-21T21:31:20.814Z,3.00
2022-10-21T21:33:48.861Z,2.42
2022-10-21T21:36:18.677Z,4.50
2022-10-21T21:38:48.250Z,5.90
2022-10-21T21:41:16.645Z,4.50
2022-10-21T21:43:45.891Z,3.90
2022-10-21T21:46:13.662Z,3.50
2022-10-21T21:48:44.448Z,2.33
2022-10-21T21:51:15.575Z,5.72
2022-10-21T21:53:43.303Z,2.80
2022-10-21T21:56:12.938Z,9.55
2022-10-21T21:58:40.886Z,3.13
2022-10-21T22:01:10.879Z,3.22
2022-10-21T22:03:41.217Z,4.10
2022-10-21T22:06:09.721Z,4.38
2022-10-21T22:08:39.773Z,5.05
2022-10-21T22:11:09.074Z,5.07
2022-10-21T22:13:39.083Z,2.35
2022-10-21T22:16:08.585Z,4.00
2022-10-21T22:18:36.368Z,4.90
2022-10-21T22:21:07.811Z,7.47
2022-10-21T22:23:36.133Z,6.03
2022-10-21T22:26:04.187Z,5.22
2022-10-21T22:28:32.013Z,6.75
2022-10-21T22:31:07.015Z,5.60
2022-10-21T22:33:35.439Z,6.85
2022-10-21T22:36:06.296Z,8.82
2022-10-21T22:38:34.150Z,7.25
2022-10-21T22:41:05.181Z,8.23
2022-10-21T22:43:34.923Z,10.10
2022-10-21T22:46:09.727Z,6.70
2022-10-21T22:48:43.376Z,8.25
2022-10-21T22:51:11.075Z,6.57
2022-10-21T22:53:38.692Z,5.78
2022-10-21T22:56:06.541Z,4.95
2022-10-21T23:04:52.966Z,2.78
2022-10-21T23:07:20.621Z,4.43
2022-10-21T23:09:48.287Z,5.57
2022-10-21T23:12:15.896Z,3.70
2022-10-21T23:14:43.551Z,5.20
2022-10-21T23:17:11.475Z,9.52
2022-10-21T23:19:39.136Z,14.20
2022-10-21T23:22:11.316Z,17.02
2022-10-21T23:24:39.034Z,13.98
2022-10-21T23:27:06.654Z,8.40
2022-10-21T23:29:34.287Z,6.28
2022-10-21T23:32:01.932Z,4.28
2022-10-21T23:34:29.620Z,3.58
2022-10-21T23:36:57.293Z,5.03
2022-10-21T23:39:27.284Z,3.97
2022-10-21T23:41:54.923Z,3.58
2022-10-21T23:44:22.545Z,4.50
2022-10-21T23:46:50.184Z,4.43
2022-10-21T23:49:17.929Z,5.32
2022-10-21T23:51:45.546Z,5.07
2022-10-21T23:54:13.272Z,5.03
2022-10-21T23:56:42.345Z,3.72
2022-10-21T23:59:10.397Z,2.95
